sensor_id;sensor_type;location;lat;lon;timestamp;pressure;altitude;pressure_sealevel;temperature;humidity
62420;BME280;48460;51.616;5.426;2022-09-17T00:01:14;101309.19;;;9.59;100.00
62420;BME280;48460;51.616;5.426;2022-09-17T00:03:41;101319.44;;;9.65;100.00
62420;BME280;48460;51.616;5.426;2022-09-17T00:06:09;101324.44;;;9.71;100.00
62420;BME280;48460;51.616;5.426;2022-09-17T00:08:37;101328.00;;;9.70;100.00
62420;BME280;48460;51.616;5.426;2022-09-17T00:13:39;101325.16;;;9.75;100.00
62420;BME280;48460;51.616;5.426;2022-09-17T00:16:05;101330.25;;;9.79;100.00
62420;BME280;48460;51.616;5.426;2022-09-17T00:18:31;101330.16;;;9.81;100.00
62420;BME280;48460;51.616;5.426;2022-09-17T00:20:57;101330.09;;;9.82;100.00
62420;BME280;48460;51.616;5.426;2022-09-17T00:23:23;101326.63;;;9.82;100.00
62420;BME280;48460;51.616;5.426;2022-09-17T00:25:48;101326.56;;;9.84;100.00
62420;BME280;48460;51.616;5.426;2022-09-17T00:28:14;101333.66;;;9.81;100.00
62420;BME280;48460;51.616;5.426;2022-09-17T00:30:44;101336.28;;;9.81;100.00
62420;BME280;48460;51.616;5.426;2022-09-17T00:33:12;101338.00;;;9.82;100.00
62420;BME280;48460;51.616;5.426;2022-09-17T00:35:37;101335.50;;;9.79;100.00
62420;BME280;48460;51.616;5.426;2022-09-17T00:38:03;101346.00;;;9.79;100.00
62420;BME280;48460;51.616;5.426;2022-09-17T00:40:28;101344.03;;;9.85;100.00
62420;BME280;48460;51.616;5.426;2022-09-17T00:42:54;101340.41;;;9.87;100.00
62420;BME280;48460;51.616;5.426;2022-09-17T00:45:19;101342.41;;;9.82;100.00
62420;BME280;48460;51.616;5.426;2022-09-17T00:47:59;101351.84;;;9.86;100.00
62420;BME280;48460;51.616;5.426;2022-09-17T00:50:32;101347.41;;;9.88;100.00
62420;BME280;48460;51.616;5.426;2022-09-17T00:53:11;101353.56;;;9.87;100.00
62420;BME280;48460;51.616;5.426;2022-09-17T00:56:02;101356.19;;;9.87;100.00
62420;BME280;48460;51.616;5.426;2022-09-17T00:58:29;101356.06;;;9.90;100.00
62420;BME280;48460;51.616;5.426;2022-09-17T01:00:56;101357.06;;;9.88;100.00
62420;BME280;48460;51.616;5.426;2022-09-17T01:03:22;101353.63;;;9.86;100.00
62420;BME280;48460;51.616;5.426;2022-09-17T01:11:19;101344.03;;;9.85;100.00
62420;BME280;48460;51.616;5.426;2022-09-17T01:22:58;101376.16;;;9.91;100.00
62420;BME280;48460;51.616;5.426;2022-09-17T01:33:38;101365.06;;;9.85;100.00
62420;BME280;48460;51.616;5.426;2022-09-17T01:36:33;101367.63;;;9.86;100.00
62420;BME280;48460;51.616;5.426;2022-09-17T01:42:08;101376.28;;;9.88;100.00
62420;BME280;48460;51.616;5.426;2022-09-17T01:44:44;101377.28;;;9.86;100.00
62420;BME280;48460;51.616;5.426;2022-09-17T01:47:22;101380.03;;;9.82;100.00
62420;BME280;48460;51.616;5.426;2022-09-17T01:49:50;101385.28;;;9.82;100.00
62420;BME280;48460;51.616;5.426;2022-09-17T01:52:18;101381.03;;;9.78;100.00
62420;BME280;48460;51.616;5.426;2022-09-17T01:54:50;101385.53;;;9.76;100.00
62420;BME280;48460;51.616;5.426;2022-09-17T01:57:31;101380.44;;;9.72;100.00
62420;BME280;48460;51.616;5.426;2022-09-17T02:00:06;101380.50;;;9.70;100.00
62420;BME280;48460;51.616;5.426;2022-09-17T02:02:42;101377.03;;;9.70;100.00
62420;BME280;48460;51.616;5.426;2022-09-17T02:07:58;101383.06;;;9.72;100.00
62420;BME280;48460;51.616;5.426;2022-09-17T02:10:38;101383.91;;;9.72;100.00
62420;BME280;48460;51.616;5.426;2022-09-17T02:13:08;101385.66;;;9.73;100.00
62420;BME280;48460;51.616;5.426;2022-09-17T02:15:45;101387.22;;;9.77;100.00
62420;BME280;48460;51.616;5.426;2022-09-17T02:26:31;101383.56;;;9.81;100.00
62420;BME280;48460;51.616;5.426;2022-09-17T02:29:07;101385.53;;;9.76;100.00
62420;BME280;48460;51.616;5.426;2022-09-17T02:31:34;101380.31;;;9.75;100.00
62420;BME280;48460;51.616;5.426;2022-09-17T02:34:00;101380.44;;;9.72;100.00
62420;BME280;48460;51.616;5.426;2022-09-17T02:36:28;101385.03;;;9.67;100.00
62420;BME280;48460;51.616;5.426;2022-09-17T02:38:57;101384.91;;;9.70;100.00
62420;BME280;48460;51.616;5.426;2022-09-17T02:41:35;101389.41;;;9.66;100.00
62420;BME280;48460;51.616;5.426;2022-09-17T02:44:26;101395.63;;;9.64;100.00
62420;BME280;48460;51.616;5.426;2022-09-17T02:47:09;101396.56;;;9.63;100.00
62420;BME280;48460;51.616;5.426;2022-09-17T02:52:16;101393.88;;;9.64;100.00
62420;BME280;48460;51.616;5.426;2022-09-17T02:55:10;101394.75;;;9.65;100.00
62420;BME280;48460;51.616;5.426;2022-09-17T02:58:11;101391.31;;;9.63;100.00
62420;BME280;48460;51.616;5.426;2022-09-17T03:00:38;101390.56;;;9.59;100.00
62420;BME280;48460;51.616;5.426;2022-09-17T03:03:19;101400.22;;;9.58;100.00
62420;BME280;48460;51.616;5.426;2022-09-17T03:05:47;101397.53;;;9.60;100.00
62420;BME280;48460;51.616;5.426;2022-09-17T03:08:13;101395.84;;;9.59;100.00
62420;BME280;48460;51.616;5.426;2022-09-17T03:10:39;101391.66;;;9.53;100.00
62420;BME280;48460;51.616;5.426;2022-09-17T03:13:05;101389.97;;;9.52;100.00
62420;BME280;48460;51.616;5.426;2022-09-17T03:15:31;101395.50;;;9.45;100.00
62420;BME280;48460;51.616;5.426;2022-09-17T03:17:57;101399.22;;;9.39;100.00
62420;BME280;48460;51.616;5.426;2022-09-17T03:20:22;101403.03;;;9.30;100.00
62420;BME280;48460;51.616;5.426;2022-09-17T03:22:47;101402.19;;;9.30;100.00
62420;BME280;48460;51.616;5.426;2022-09-17T03:25:13;101396.25;;;9.25;100.00
62420;BME280;48460;51.616;5.426;2022-09-17T03:27:39;101404.09;;;9.26;100.00
62420;BME280;48460;51.616;5.426;2022-09-17T03:30:05;101398.94;;;9.23;100.00
62420;BME280;48460;51.616;5.426;2022-09-17T03:32:31;101393.84;;;9.19;100.00
62420;BME280;48460;51.616;5.426;2022-09-17T03:34:57;101395.50;;;9.21;100.00
62420;BME280;48460;51.616;5.426;2022-09-17T03:37:23;101391.31;;;9.17;100.00
62420;BME280;48460;51.616;5.426;2022-09-17T03:39:48;101386.09;;;9.16;100.00
62420;BME280;48460;51.616;5.426;2022-09-17T03:42:14;101388.84;;;9.12;100.00
62420;BME280;48460;51.616;5.426;2022-09-17T03:44:39;101391.56;;;9.09;100.00
62420;BME280;48460;51.616;5.426;2022-09-17T03:47:05;101391.66;;;9.08;100.00
62420;BME280;48460;51.616;5.426;2022-09-17T03:49:30;101395.06;;;9.10;100.00
62420;BME280;48460;51.616;5.426;2022-09-17T03:51:56;101388.19;;;9.07;100.00
62420;BME280;48460;51.616;5.426;2022-09-17T03:54:21;101389.06;;;9.06;100.00
62420;BME280;48460;51.616;5.426;2022-09-17T03:56:47;101390.84;;;9.06;100.00
62420;BME280;48460;51.616;5.426;2022-09-17T03:59:14;101398.78;;;9.04;100.00
62420;BME280;48460;51.616;5.426;2022-09-17T04:01:39;101397.00;;;9.05;100.00
62420;BME280;48460;51.616;5.426;2022-09-17T04:04:05;101403.16;;;9.04;100.00
62420;BME280;48460;51.616;5.426;2022-09-17T04:06:30;101408.50;;;9.01;100.00
62420;BME280;48460;51.616;5.426;2022-09-17T04:08:56;101413.75;;;9.01;100.00
62420;BME280;48460;51.616;5.426;2022-09-17T04:11:22;101412.22;;;8.95;100.00
62420;BME280;48460;51.616;5.426;2022-09-17T04:13:47;101413.03;;;8.97;100.00
62420;BME280;48460;51.616;5.426;2022-09-17T04:16:13;101412.31;;;8.92;100.00
62420;BME280;48460;51.616;5.426;2022-09-17T04:18:38;101415.88;;;8.91;100.00
62420;BME280;48460;51.616;5.426;2022-09-17T04:21:04;101423.81;;;8.89;100.00
62420;BME280;48460;51.616;5.426;2022-09-17T04:23:29;101418.59;;;8.88;100.00
62420;BME280;48460;51.616;5.426;2022-09-17T04:25:54;101421.06;;;8.93;100.00
62420;BME280;48460;51.616;5.426;2022-09-17T04:28:20;101425.28;;;8.97;100.00
62420;BME280;48460;51.616;5.426;2022-09-17T04:30:47;101420.88;;;8.97;100.00
62420;BME280;48460;51.616;5.426;2022-09-17T04:33:12;101417.34;;;8.98;100.00
62420;BME280;48460;51.616;5.426;2022-09-17T04:35:37;101425.13;;;9.01;100.00
62420;BME280;48460;51.616;5.426;2022-09-17T04:38:03;101415.50;;;9.02;100.00
62420;BME280;48460;51.616;5.426;2022-09-17T04:40:29;101406.81;;;9.00;100.00
62420;BME280;48460;51.616;5.426;2022-09-17T04:42:55;101413.88;;;8.98;100.00
62420;BME280;48460;51.616;5.426;2022-09-17T04:45:24;101417.34;;;8.98;100.00
62420;BME280;48460;51.616;5.426;2022-09-17T04:47:50;101416.56;;;8.96;100.00
62420;BME280;48460;51.616;5.426;2022-09-17T04:50:21;101423.50;;;8.97;100.00
62420;BME280;48460;51.616;5.426;2022-09-17T04:52:47;101415.63;;;8.97;100.00
62420;BME280;48460;51.616;5.426;2022-09-17T04:55:15;101416.69;;;8.93;100.00
62420;BME280;48460;51.616;5.426;2022-09-17T04:57:51;101418.47;;;8.91;100.00
62420;BME280;48460;51.616;5.426;2022-09-17T05:00:18;101416.03;;;8.86;100.00
62420;BME280;48460;51.616;5.426;2022-09-17T05:02:45;101417.84;;;8.84;100.00
62420;BME280;48460;51.616;5.426;2022-09-17T05:05:11;101424.03;;;8.83;100.00
62420;BME280;48460;51.616;5.426;2022-09-17T05:07:38;101419.84;;;8.78;100.00
62420;BME280;48460;51.616;5.426;2022-09-17T05:10:04;101412.94;;;8.75;100.00
62420;BME280;48460;51.616;5.426;2022-09-17T05:12:30;101412.97;;;8.74;100.00
62420;BME280;48460;51.616;5.426;2022-09-17T05:14:55;101420.94;;;8.71;100.00
62420;BME280;48460;51.616;5.426;2022-09-17T05:17:21;101436.78;;;8.67;100.00
62420;BME280;48460;51.616;5.426;2022-09-17T05:19:46;101430.72;;;8.65;100.00
62420;BME280;48460;51.616;5.426;2022-09-17T05:22:13;101432.50;;;8.65;100.00
62420;BME280;48460;51.616;5.426;2022-09-17T05:24:38;101435.13;;;8.65;100.00
62420;BME280;48460;51.616;5.426;2022-09-17T05:27:07;101431.81;;;8.60;100.00
62420;BME280;48460;51.616;5.426;2022-09-17T05:29:33;101443.16;;;8.60;100.00
62420;BME280;48460;51.616;5.426;2022-09-17T05:31:58;101454.50;;;8.61;100.00
62420;BME280;48460;51.616;5.426;2022-09-17T05:34:25;101449.28;;;8.59;100.00
62420;BME280;48460;51.616;5.426;2022-09-17T05:36:50;101457.13;;;8.61;100.00
62420;BME280;48460;51.616;5.426;2022-09-17T05:39:15;101456.31;;;8.59;100.00
62420;BME280;48460;51.616;5.426;2022-09-17T05:41:41;101447.66;;;8.57;100.00
62420;BME280;48460;51.616;5.426;2022-09-17T05:44:06;101458.91;;;8.60;100.00
62420;BME280;48460;51.616;5.426;2022-09-17T05:46:32;101458.03;;;8.60;100.00
62420;BME280;48460;51.616;5.426;2022-09-17T05:48:57;101456.22;;;8.62;100.00
62420;BME280;48460;51.616;5.426;2022-09-17T05:51:23;101464.03;;;8.63;100.00
62420;BME280;48460;51.616;5.426;2022-09-17T05:53:49;101461.13;;;8.71;100.00
62420;BME280;48460;51.616;5.426;2022-09-17T05:56:14;101467.91;;;8.78;100.00
62420;BME280;48460;51.616;5.426;2022-09-17T05:58:40;101477.25;;;8.85;100.00
62420;BME280;48460;51.616;5.426;2022-09-17T06:01:05;101477.00;;;8.93;100.00
62420;BME280;48460;51.616;5.426;2022-09-17T06:03:31;101480.22;;;9.01;100.00
62420;BME280;48460;51.616;5.426;2022-09-17T06:05:58;101475.63;;;9.08;100.00
62420;BME280;48460;51.616;5.426;2022-09-17T06:08:25;101478.88;;;9.15;100.00
62420;BME280;48460;51.616;5.426;2022-09-17T06:10:51;101476.09;;;9.19;100.00
62420;BME280;48460;51.616;5.426;2022-09-17T06:13:17;101460.34;;;9.19;100.00
62420;BME280;48460;51.616;5.426;2022-09-17T06:15:51;101461.09;;;9.23;100.00
62420;BME280;48460;51.616;5.426;2022-09-17T06:18:17;101466.22;;;9.26;100.00
62420;BME280;48460;51.616;5.426;2022-09-17T06:20:51;101467.06;;;9.26;100.00
62420;BME280;48460;51.616;5.426;2022-09-17T06:23:18;101478.38;;;9.28;100.00
62420;BME280;48460;51.616;5.426;2022-09-17T06:25:58;101488.75;;;9.31;100.00
62420;BME280;48460;51.616;5.426;2022-09-17T06:28:25;101479.22;;;9.29;100.00
62420;BME280;48460;51.616;5.426;2022-09-17T06:30:51;101481.84;;;9.29;100.00
62420;BME280;48460;51.616;5.426;2022-09-17T06:33:21;101486.91;;;9.33;100.00
62420;BME280;48460;51.616;5.426;2022-09-17T06:35:47;101481.50;;;9.38;100.00
62420;BME280;48460;51.616;5.426;2022-09-17T06:38:13;101477.00;;;9.42;100.00
62420;BME280;48460;51.616;5.426;2022-09-17T06:40:39;101470.06;;;9.41;100.00
62420;BME280;48460;51.616;5.426;2022-09-17T06:43:04;101473.53;;;9.41;100.00
62420;BME280;48460;51.616;5.426;2022-09-17T06:45:30;101482.22;;;9.43;100.00
62420;BME280;48460;51.616;5.426;2022-09-17T06:47:55;101475.91;;;9.47;100.00
62420;BME280;48460;51.616;5.426;2022-09-17T06:50:20;101479.34;;;9.49;100.00
62420;BME280;48460;51.616;5.426;2022-09-17T06:52:47;101482.84;;;9.50;100.00
62420;BME280;48460;51.616;5.426;2022-09-17T06:55:13;101484.19;;;9.60;100.00
62420;BME280;48460;51.616;5.426;2022-09-17T06:57:39;101478.88;;;9.85;100.00
62420;BME280;48460;51.616;5.426;2022-09-17T07:00:05;101483.41;;;10.03;100.00
62420;BME280;48460;51.616;5.426;2022-09-17T07:02:31;101485.28;;;10.22;100.00
62420;BME280;48460;51.616;5.426;2022-09-17T07:04:56;101479.06;;;10.46;100.00
62420;BME280;48460;51.616;5.426;2022-09-17T07:07:22;101492.06;;;10.71;100.00
62420;BME280;48460;51.616;5.426;2022-09-17T07:09:47;101486.47;;;11.00;100.00
62420;BME280;48460;51.616;5.426;2022-09-17T07:12:12;101486.00;;;11.31;100.00
62420;BME280;48460;51.616;5.426;2022-09-17T07:14:38;101484.22;;;11.50;98.97
62420;BME280;48460;51.616;5.426;2022-09-17T07:17:03;101484.88;;;11.74;99.70
62420;BME280;48460;51.616;5.426;2022-09-17T07:19:29;101488.25;;;11.97;96.63
62420;BME280;48460;51.616;5.426;2022-09-17T07:21:54;101495.63;;;12.26;96.50
62420;BME280;48460;51.616;5.426;2022-09-17T07:24:19;101490.44;;;12.42;93.37
62420;BME280;48460;51.616;5.426;2022-09-17T07:26:45;101495.78;;;12.58;93.92
62420;BME280;48460;51.616;5.426;2022-09-17T07:29:11;101497.53;;;12.76;93.84
62420;BME280;48460;51.616;5.426;2022-09-17T07:31:37;101503.88;;;12.90;92.01
62420;BME280;48460;51.616;5.426;2022-09-17T07:34:02;101491.63;;;13.06;90.28
62420;BME280;48460;51.616;5.426;2022-09-17T07:36:28;101487.66;;;12.97;86.87
62420;BME280;48460;51.616;5.426;2022-09-17T07:38:53;101489.19;;;13.19;90.49
62420;BME280;48460;51.616;5.426;2022-09-17T07:41:18;101491.31;;;13.45;90.04
62420;BME280;48460;51.616;5.426;2022-09-17T07:43:44;101494.44;;;13.70;86.99
62420;BME280;48460;51.616;5.426;2022-09-17T07:46:17;101495.66;;;13.96;84.07
62420;BME280;48460;51.616;5.426;2022-09-17T07:48:42;101493.84;;;13.80;83.47
62420;BME280;48460;51.616;5.426;2022-09-17T07:51:14;101491.63;;;13.88;83.99
62420;BME280;48460;51.616;5.426;2022-09-17T07:53:39;101481.75;;;13.92;82.42
62420;BME280;48460;51.616;5.426;2022-09-17T07:56:05;101488.81;;;14.07;83.35
62420;BME280;48460;51.616;5.426;2022-09-17T07:58:32;101491.19;;;14.28;82.35
62420;BME280;48460;51.616;5.426;2022-09-17T08:01:02;101492.03;;;14.28;81.67
62420;BME280;48460;51.616;5.426;2022-09-17T08:03:28;101487.41;;;14.32;81.21
62420;BME280;48460;51.616;5.426;2022-09-17T08:06:10;101489.69;;;14.54;79.08
62420;BME280;48460;51.616;5.426;2022-09-17T08:08:36;101493.03;;;14.88;79.16
62420;BME280;48460;51.616;5.426;2022-09-17T08:11:04;101492.44;;;14.82;75.95
62420;BME280;48460;51.616;5.426;2022-09-17T08:13:30;101486.69;;;14.90;79.68
62420;BME280;48460;51.616;5.426;2022-09-17T08:15:59;101489.28;;;15.20;79.24
62420;BME280;48460;51.616;5.426;2022-09-17T08:18:25;101499.38;;;15.14;76.87
62420;BME280;48460;51.616;5.426;2022-09-17T08:20:51;101493.56;;;15.23;76.97
62420;BME280;48460;51.616;5.426;2022-09-17T08:23:16;101490.13;;;15.21;76.34
62420;BME280;48460;51.616;5.426;2022-09-17T08:25:42;101490.59;;;15.42;75.15
62420;BME280;48460;51.616;5.426;2022-09-17T08:28:07;101485.50;;;15.53;75.93
62420;BME280;48460;51.616;5.426;2022-09-17T08:30:32;101484.66;;;16.08;75.80
62420;BME280;48460;51.616;5.426;2022-09-17T08:32:58;101486.66;;;16.05;72.14
62420;BME280;48460;51.616;5.426;2022-09-17T08:35:24;101480.59;;;16.03;71.56
62420;BME280;48460;51.616;5.426;2022-09-17T08:37:53;101489.50;;;16.02;72.77
62420;BME280;48460;51.616;5.426;2022-09-17T08:40:20;101489.31;;;16.32;72.92
62420;BME280;48460;51.616;5.426;2022-09-17T08:42:54;101491.28;;;16.55;70.95
62420;BME280;48460;51.616;5.426;2022-09-17T08:45:23;101485.59;;;16.74;68.69
62420;BME280;48460;51.616;5.426;2022-09-17T08:47:53;101501.59;;;17.00;70.02
62420;BME280;48460;51.616;5.426;2022-09-17T08:50:26;101490.03;;;17.14;65.05
62420;BME280;48460;51.616;5.426;2022-09-17T08:55:48;101494.16;;;17.30;67.12
62420;BME280;48460;51.616;5.426;2022-09-17T09:01:03;101515.19;;;16.55;66.79
62420;BME280;48460;51.616;5.426;2022-09-17T09:03:53;101515.47;;;15.97;69.66
62420;BME280;48460;51.616;5.426;2022-09-17T09:06:23;101507.94;;;15.47;67.08
62420;BME280;48460;51.616;5.426;2022-09-17T09:08:58;101509.75;;;14.88;69.21
62420;BME280;48460;51.616;5.426;2022-09-17T09:11:29;101507.63;;;14.49;70.51
62420;BME280;48460;51.616;5.426;2022-09-17T09:14:18;101510.44;;;14.30;71.57
62420;BME280;48460;51.616;5.426;2022-09-17T09:16:46;101514.47;;;14.21;73.99
62420;BME280;48460;51.616;5.426;2022-09-17T09:19:23;101508.56;;;14.64;74.35
62420;BME280;48460;51.616;5.426;2022-09-17T09:22:00;101518.63;;;15.17;71.67
62420;BME280;48460;51.616;5.426;2022-09-17T09:24:35;101510.69;;;15.75;70.63
62420;BME280;48460;51.616;5.426;2022-09-17T09:27:14;101515.50;;;16.24;70.07
62420;BME280;48460;51.616;5.426;2022-09-17T09:29:57;101525.38;;;16.22;68.77
62420;BME280;48460;51.616;5.426;2022-09-17T09:35:10;101521.63;;;15.97;67.71
62420;BME280;48460;51.616;5.426;2022-09-17T09:37:38;101517.41;;;15.94;67.57
62420;BME280;48460;51.616;5.426;2022-09-17T09:43:44;101523.38;;;16.92;66.00
62420;BME280;48460;51.616;5.426;2022-09-17T09:51:30;101516.91;;;17.60;62.09
62420;BME280;48460;51.616;5.426;2022-09-17T09:54:32;101512.41;;;17.86;64.79
62420;BME280;48460;51.616;5.426;2022-09-17T09:57:07;101508.25;;;17.69;57.46
62420;BME280;48460;51.616;5.426;2022-09-17T09:59:34;101507.88;;;17.50;61.59
62420;BME280;48460;51.616;5.426;2022-09-17T10:02:00;101498.28;;;17.73;61.06
62420;BME280;48460;51.616;5.426;2022-09-17T10:04:27;101505.19;;;17.88;58.76
62420;BME280;48460;51.616;5.426;2022-09-17T10:07:13;101518.69;;;18.22;58.23
62420;BME280;48460;51.616;5.426;2022-09-17T10:09:44;101518.59;;;18.24;56.54
62420;BME280;48460;51.616;5.426;2022-09-17T10:14:43;101525.03;;;18.56;58.14
62420;BME280;48460;51.616;5.426;2022-09-17T10:17:16;101532.06;;;18.81;56.07
62420;BME280;48460;51.616;5.426;2022-09-17T10:19:44;101520.66;;;18.55;55.57
62420;BME280;48460;51.616;5.426;2022-09-17T10:22:26;101522.28;;;17.97;59.62
62420;BME280;48460;51.616;5.426;2022-09-17T10:24:54;101520.97;;;17.40;59.61
62420;BME280;48460;51.616;5.426;2022-09-17T10:27:22;101524.75;;;16.98;62.66
62420;BME280;48460;51.616;5.426;2022-09-17T10:29:53;101517.56;;;17.00;65.23
62420;BME280;48460;51.616;5.426;2022-09-17T10:32:22;101505.22;;;17.50;64.57
62420;BME280;48460;51.616;5.426;2022-09-17T10:35:05;101502.53;;;18.12;61.08
62420;BME280;48460;51.616;5.426;2022-09-17T10:37:49;101497.34;;;18.70;59.60
62420;BME280;48460;51.616;5.426;2022-09-17T10:42:48;101500.59;;;19.09;58.40
62420;BME280;48460;51.616;5.426;2022-09-17T10:45:25;101489.84;;;19.10;54.90
62420;BME280;48460;51.616;5.426;2022-09-17T10:47:51;101494.22;;;19.56;55.69
62420;BME280;48460;51.616;5.426;2022-09-17T10:50:19;101499.75;;;20.10;55.63
62420;BME280;48460;51.616;5.426;2022-09-17T10:52:57;101500.38;;;20.34;52.92
62420;BME280;48460;51.616;5.426;2022-09-17T10:55:36;101501.88;;;20.27;53.20
62420;BME280;48460;51.616;5.426;2022-09-17T11:03:44;101495.66;;;20.70;51.01
62420;BME280;48460;51.616;5.426;2022-09-17T11:06:26;101496.91;;;20.22;52.81
62420;BME280;48460;51.616;5.426;2022-09-17T11:09:10;101483.06;;;18.47;53.63
62420;BME280;48460;51.616;5.426;2022-09-17T11:11:48;101495.25;;;17.90;55.30
62420;BME280;48460;51.616;5.426;2022-09-17T11:14:49;101496.81;;;18.54;56.29
62420;BME280;48460;51.616;5.426;2022-09-17T11:20:40;101488.22;;;20.09;51.83
62420;BME280;48460;51.616;5.426;2022-09-17T11:25:54;101475.78;;;20.63;49.50
62420;BME280;48460;51.616;5.426;2022-09-17T11:28:41;101484.59;;;20.75;49.80
62420;BME280;48460;51.616;5.426;2022-09-17T11:36:24;101481.75;;;21.18;48.23
62420;BME280;48460;51.616;5.426;2022-09-17T11:38:52;101469.75;;;21.12;46.11
62420;BME280;48460;51.616;5.426;2022-09-17T11:41:28;101465.97;;;21.15;48.10
62420;BME280;48460;51.616;5.426;2022-09-17T11:44:07;101468.97;;;21.52;47.88
62420;BME280;48460;51.616;5.426;2022-09-17T11:47:01;101462.09;;;22.19;46.86
62420;BME280;48460;51.616;5.426;2022-09-17T11:52:31;101463.28;;;21.36;46.78
62420;BME280;48460;51.616;5.426;2022-09-17T11:57:46;101446.69;;;22.02;42.42
62420;BME280;48460;51.616;5.426;2022-09-17T12:00:18;101439.75;;;21.90;44.44
62420;BME280;48460;51.616;5.426;2022-09-17T12:05:51;101445.91;;;20.58;47.44
62420;BME280;48460;51.616;5.426;2022-09-17T12:08:28;101447.81;;;20.14;49.97
62420;BME280;48460;51.616;5.426;2022-09-17T12:13:39;101460.50;;;18.05;67.02
62420;BME280;48460;51.616;5.426;2022-09-17T12:16:39;101473.84;;;17.55;68.18
62420;BME280;48460;51.616;5.426;2022-09-17T12:19:24;101457.03;;;17.42;70.44
62420;BME280;48460;51.616;5.426;2022-09-17T12:24:44;101452.16;;;19.26;67.92
62420;BME280;48460;51.616;5.426;2022-09-17T12:32:43;101452.03;;;21.42;55.87
62420;BME280;48460;51.616;5.426;2022-09-17T12:38:33;101437.69;;;22.22;53.17
62420;BME280;48460;51.616;5.426;2022-09-17T12:41:19;101437.22;;;22.66;49.21
62420;BME280;48460;51.616;5.426;2022-09-17T12:59:58;101435.94;;;20.27;43.84
62420;BME280;48460;51.616;5.426;2022-09-17T13:02:47;101446.06;;;20.56;43.19
62420;BME280;48460;51.616;5.426;2022-09-17T13:05:24;101446.91;;;20.57;40.58
62420;BME280;48460;51.616;5.426;2022-09-17T13:16:17;101424.59;;;21.50;37.05
62420;BME280;48460;51.616;5.426;2022-09-17T13:21:52;101429.88;;;22.10;37.72
62420;BME280;48460;51.616;5.426;2022-09-17T13:24:22;101427.94;;;21.92;35.87
62420;BME280;48460;51.616;5.426;2022-09-17T13:26:53;101411.97;;;21.81;36.11
62420;BME280;48460;51.616;5.426;2022-09-17T13:37:57;101423.16;;;20.84;39.31
62420;BME280;48460;51.616;5.426;2022-09-17T13:40:31;101430.47;;;20.08;40.32
62420;BME280;48460;51.616;5.426;2022-09-17T13:45:31;101430.56;;;19.41;43.69
62420;BME280;48460;51.616;5.426;2022-09-17T13:48:08;101436.75;;;20.07;43.43
62420;BME280;48460;51.616;5.426;2022-09-17T13:50:37;101434.63;;;19.90;42.61
62420;BME280;48460;51.616;5.426;2022-09-17T13:53:16;101426.31;;;19.49;45.12
62420;BME280;48460;51.616;5.426;2022-09-17T13:55:55;101431.88;;;18.90;45.47
62420;BME280;48460;51.616;5.426;2022-09-17T13:58:33;101443.41;;;18.55;46.94
62420;BME280;48460;51.616;5.426;2022-09-17T14:01:05;101441.09;;;18.86;46.97
62420;BME280;48460;51.616;5.426;2022-09-17T14:13:49;101436.25;;;19.81;44.61
62420;BME280;48460;51.616;5.426;2022-09-17T14:21:33;101452.63;;;20.20;45.18
62420;BME280;48460;51.616;5.426;2022-09-17T14:24:18;101448.66;;;20.03;45.72
62420;BME280;48460;51.616;5.426;2022-09-17T14:34:52;101451.28;;;19.82;44.67
62420;BME280;48460;51.616;5.426;2022-09-17T14:37:20;101453.47;;;19.32;44.63
62420;BME280;48460;51.616;5.426;2022-09-17T14:39:47;101457.16;;;18.73;46.12
62420;BME280;48460;51.616;5.426;2022-09-17T14:42:34;101461.94;;;18.57;48.38
62420;BME280;48460;51.616;5.426;2022-09-17T14:45:06;101456.03;;;19.33;45.20
62420;BME280;48460;51.616;5.426;2022-09-17T14:47:38;101454.06;;;19.80;43.40
62420;BME280;48460;51.616;5.426;2022-09-17T14:50:23;101454.81;;;20.15;43.37
62420;BME280;48460;51.616;5.426;2022-09-17T14:52:50;101451.38;;;20.24;42.06
62420;BME280;48460;51.616;5.426;2022-09-17T14:55:17;101444.56;;;20.31;40.06
62420;BME280;48460;51.616;5.426;2022-09-17T14:57:45;101450.28;;;20.26;38.39
62420;BME280;48460;51.616;5.426;2022-09-17T15:00:21;101449.78;;;20.00;38.29
62420;BME280;48460;51.616;5.426;2022-09-17T15:02:54;101446.56;;;19.41;38.92
62420;BME280;48460;51.616;5.426;2022-09-17T15:05:34;101457.91;;;18.75;40.38
62420;BME280;48460;51.616;5.426;2022-09-17T15:10:46;101455.34;;;18.14;41.92
62420;BME280;48460;51.616;5.426;2022-09-17T15:13:16;101447.34;;;18.14;39.95
62420;BME280;48460;51.616;5.426;2022-09-17T15:16:35;101448.84;;;18.18;41.44
62420;BME280;48460;51.616;5.426;2022-09-17T15:18:47;101441.88;;;18.05;40.65
62420;BME280;48460;51.616;5.426;2022-09-17T15:21:51;101446.28;;;18.17;40.54
62420;BME280;48460;51.616;5.426;2022-09-17T15:29:44;101441.75;;;17.82;40.72
62420;BME280;48460;51.616;5.426;2022-09-17T15:32:12;101446.13;;;17.70;40.86
62420;BME280;48460;51.616;5.426;2022-09-17T15:34:38;101450.72;;;17.68;42.11
62420;BME280;48460;51.616;5.426;2022-09-17T15:37:18;101447.75;;;17.60;42.45
62420;BME280;48460;51.616;5.426;2022-09-17T15:39:49;101455.84;;;17.46;42.16
62420;BME280;48460;51.616;5.426;2022-09-17T15:50:13;101466.56;;;16.68;47.01
62420;BME280;48460;51.616;5.426;2022-09-17T15:52:39;101459.63;;;16.52;48.44
62420;BME280;48460;51.616;5.426;2022-09-17T15:55:05;101464.41;;;16.47;48.74
62420;BME280;48460;51.616;5.426;2022-09-17T15:57:31;101464.31;;;16.49;49.56
62420;BME280;48460;51.616;5.426;2022-09-17T16:00:13;101465.59;;;16.56;48.71
62420;BME280;48460;51.616;5.426;2022-09-17T16:02:39;101460.25;;;16.43;48.00
62420;BME280;48460;51.616;5.426;2022-09-17T16:05:44;101469.47;;;16.37;47.63
62420;BME280;48460;51.616;5.426;2022-09-17T16:08:18;101462.13;;;16.28;45.82
62420;BME280;48460;51.616;5.426;2022-09-17T16:10:43;101466.84;;;16.10;45.07